sensor_id;sensor_type;location;lat;lon;timestamp;temperature;humidity
18067;DHT22;9158;51.528;7.192;2023-09-08T00:00:01;19.50;9.80
18067;DHT22;9158;51.528;7.192;2023-09-08T00:00:35;19.50;1.00
18067;DHT22;9158;51.528;7.192;2023-09-08T00:01:06;19.40;1.00
18067;DHT22;9158;51.528;7.192;2023-09-08T00:01:37;19.40;1.00
18067;DHT22;9158;51.528;7.192;2023-09-08T00:02:08;19.50;19.80
18067;DHT22;9158;51.528;7.192;2023-09-08T00:02:42;19.50;1.00
18067;DHT22;9158;51.528;7.192;2023-09-08T00:03:13;19.50;12.50
18067;DHT22;9158;51.528;7.192;2023-09-08T00:03:44;19.40;1.00
18067;DHT22;9158;51.528;7.192;2023-09-08T00:04:15;19.40;1.00
18067;DHT22;9158;51.528;7.192;2023-09-08T00:04:47;19.40;1.00
18067;DHT22;9158;51.528;7.192;2023-09-08T00:05:18;19.40;1.00
18067;DHT22;9158;51.528;7.192;2023-09-08T00:05:49;19.30;1.00
18067;DHT22;9158;51.528;7.192;2023-09-08T00:06:20;19.40;1.00
18067;DHT22;9158;51.528;7.192;2023-09-08T00:06:51;19.30;27.50
18067;DHT22;9158;51.528;7.192;2023-09-08T00:07:22;19.30;1.00
18067;DHT22;9158;51.528;7.192;2023-09-08T00:07:53;19.30;12.10
18067;DHT22;9158;51.528;7.192;2023-09-08T00:08:26;19.30;41.40
18067;DHT22;9158;51.528;7.192;2023-09-08T00:08:56;19.40;19.10
18067;DHT22;9158;51.528;7.192;2023-09-08T00:09:27;19.30;18.80
18067;DHT22;9158;51.528;7.192;2023-09-08T00:09:58;19.30;32.90
18067;DHT22;9158;51.528;7.192;2023-09-08T00:10:30;19.30;32.70
18067;DHT22;9158;51.528;7.192;2023-09-08T00:11:01;19.20;40.90
18067;DHT22;9158;51.528;7.192;2023-09-08T00:11:32;19.30;24.60
18067;DHT22;9158;51.528;7.192;2023-09-08T00:12:05;19.30;19.60
18067;DHT22;9158;51.528;7.192;2023-09-08T00:12:36;19.20;10.20
18067;DHT22;9158;51.528;7.192;2023-09-08T00:13:07;19.20;7.80
18067;DHT22;9158;51.528;7.192;2023-09-08T00:13:38;19.20;68.10
18067;DHT22;9158;51.528;7.192;2023-09-08T00:14:10;19.20;8.60
18067;DHT22;9158;51.528;7.192;2023-09-08T00:14:41;19.10;5.40
18067;DHT22;9158;51.528;7.192;2023-09-08T00:15:12;19.20;12.70
18067;DHT22;9158;51.528;7.192;2023-09-08T00:15:43;19.20;29.90
18067;DHT22;9158;51.528;7.192;2023-09-08T00:16:15;19.20;16.40
18067;DHT22;9158;51.528;7.192;2023-09-08T00:16:46;19.10;99.90
18067;DHT22;9158;51.528;7.192;2023-09-08T00:17:17;19.10;28.10
18067;DHT22;9158;51.528;7.192;2023-09-08T00:17:50;19.10;41.80
18067;DHT22;9158;51.528;7.192;2023-09-08T00:18:22;19.10;36.00
18067;DHT22;9158;51.528;7.192;2023-09-08T00:18:53;19.10;91.70
18067;DHT22;9158;51.528;7.192;2023-09-08T00:19:24;19.10;22.70
18067;DHT22;9158;51.528;7.192;2023-09-08T00:19:57;19.10;27.90
18067;DHT22;9158;51.528;7.192;2023-09-08T00:20:28;19.10;21.50
18067;DHT22;9158;51.528;7.192;2023-09-08T00:20:59;19.10;57.70
18067;DHT22;9158;51.528;7.192;2023-09-08T00:21:30;19.10;27.60
18067;DHT22;9158;51.528;7.192;2023-09-08T00:22:02;19.10;64.00
18067;DHT22;9158;51.528;7.192;2023-09-08T00:22:37;19.10;66.50
18067;DHT22;9158;51.528;7.192;2023-09-08T00:23:08;19.10;40.80
18067;DHT22;9158;51.528;7.192;2023-09-08T00:23:39;19.00;66.40
18067;DHT22;9158;51.528;7.192;2023-09-08T00:24:10;20.80;65.00
18067;DHT22;9158;51.528;7.192;2023-09-08T00:24:43;19.10;43.40
18067;DHT22;9158;51.528;7.192;2023-09-08T00:25:14;19.10;28.40
18067;DHT22;9158;51.528;7.192;2023-09-08T00:25:45;19.10;20.70
18067;DHT22;9158;51.528;7.192;2023-09-08T00:26:16;19.10;18.30
18067;DHT22;9158;51.528;7.192;2023-09-08T00:26:48;19.10;8.90
18067;DHT22;9158;51.528;7.192;2023-09-08T00:27:19;19.10;11.50
18067;DHT22;9158;51.528;7.192;2023-09-08T00:27:50;19.10;58.40
18067;DHT22;9158;51.528;7.192;2023-09-08T00:28:22;19.10;66.60
18067;DHT22;9158;51.528;7.192;2023-09-08T00:28:53;19.10;35.30
18067;DHT22;9158;51.528;7.192;2023-09-08T00:29:24;19.10;50.90
18067;DHT22;9158;51.528;7.192;2023-09-08T00:29:55;19.10;98.50
18067;DHT22;9158;51.528;7.192;2023-09-08T00:30:27;19.10;43.20
18067;DHT22;9158;51.528;7.192;2023-09-08T00:30:59;19.10;48.30
18067;DHT22;9158;51.528;7.192;2023-09-08T00:31:31;19.10;40.00
18067;DHT22;9158;51.528;7.192;2023-09-08T00:32:02;19.10;29.50
18067;DHT22;9158;51.528;7.192;2023-09-08T00:32:34;19.10;31.50
18067;DHT22;9158;51.528;7.192;2023-09-08T00:33:06;19.10;97.50
18067;DHT22;9158;51.528;7.192;2023-09-08T00:33:39;19.00;99.90
18067;DHT22;9158;51.528;7.192;2023-09-08T00:34:11;19.10;39.90
18067;DHT22;9158;51.528;7.192;2023-09-08T00:34:43;19.10;57.70
18067;DHT22;9158;51.528;7.192;2023-09-08T00:35:15;19.10;48.70
18067;DHT22;9158;51.528;7.192;2023-09-08T00:35:48;19.10;68.10
18067;DHT22;9158;51.528;7.192;2023-09-08T00:36:19;19.10;52.50
18067;DHT22;9158;51.528;7.192;2023-09-08T00:36:52;19.10;39.40
18067;DHT22;9158;51.528;7.192;2023-09-08T00:37:23;19.10;24.20
18067;DHT22;9158;51.528;7.192;2023-09-08T00:37:54;19.00;55.00
18067;DHT22;9158;51.528;7.192;2023-09-08T00:38:25;19.00;55.10
18067;DHT22;9158;51.528;7.192;2023-09-08T00:38:57;19.00;34.30
18067;DHT22;9158;51.528;7.192;2023-09-08T00:39:28;19.00;99.90
18067;DHT22;9158;51.528;7.192;2023-09-08T00:39:59;19.00;52.40
18067;DHT22;9158;51.528;7.192;2023-09-08T00:40:30;19.00;99.90
18067;DHT22;9158;51.528;7.192;2023-09-08T00:41:04;19.00;52.70
18067;DHT22;9158;51.528;7.192;2023-09-08T00:41:36;19.00;27.90
18067;DHT22;9158;51.528;7.192;2023-09-08T00:42:07;18.90;99.90
18067;DHT22;9158;51.528;7.192;2023-09-08T00:42:38;19.00;40.00
18067;DHT22;9158;51.528;7.192;2023-09-08T00:43:09;19.00;80.00
18067;DHT22;9158;51.528;7.192;2023-09-08T00:43:41;18.90;92.80
18067;DHT22;9158;51.528;7.192;2023-09-08T00:44:12;18.90;50.80
18067;DHT22;9158;51.528;7.192;2023-09-08T00:44:43;18.90;30.50
18067;DHT22;9158;51.528;7.192;2023-09-08T00:45:15;18.90;28.60
18067;DHT22;9158;51.528;7.192;2023-09-08T00:45:47;18.90;23.20
18067;DHT22;9158;51.528;7.192;2023-09-08T00:46:18;18.90;27.60
18067;DHT22;9158;51.528;7.192;2023-09-08T00:46:50;18.90;96.20
18067;DHT22;9158;51.528;7.192;2023-09-08T00:47:21;18.90;40.90
18067;DHT22;9158;51.528;7.192;2023-09-08T00:47:53;18.90;83.60
18067;DHT22;9158;51.528;7.192;2023-09-08T00:48:25;18.90;54.50
18067;DHT22;9158;51.528;7.192;2023-09-08T00:48:56;18.90;97.20
18067;DHT22;9158;51.528;7.192;2023-09-08T00:49:29;18.80;95.60
18067;DHT22;9158;51.528;7.192;2023-09-08T00:50:02;18.80;61.00
18067;DHT22;9158;51.528;7.192;2023-09-08T00:50:33;18.80;42.90
18067;DHT22;9158;51.528;7.192;2023-09-08T00:51:04;18.80;50.00
18067;DHT22;9158;51.528;7.192;2023-09-08T00:51:38;18.80;99.90
18067;DHT22;9158;51.528;7.192;2023-09-08T00:52:09;18.80;69.40
18067;DHT22;9158;51.528;7.192;2023-09-08T00:52:40;18.80;72.70
18067;DHT22;9158;51.528;7.192;2023-09-08T00:53:12;18.80;99.90
18067;DHT22;9158;51.528;7.192;2023-09-08T00:53:44;18.80;84.10
18067;DHT22;9158;51.528;7.192;2023-09-08T00:54:15;18.80;75.80
18067;DHT22;9158;51.528;7.192;2023-09-08T00:54:46;18.80;76.90
18067;DHT22;9158;51.528;7.192;2023-09-08T00:55:17;18.80;69.30
18067;DHT22;9158;51.528;7.192;2023-09-08T00:55:48;18.80;91.20
18067;DHT22;9158;51.528;7.192;2023-09-08T00:56:21;18.80;79.60
18067;DHT22;9158;51.528;7.192;2023-09-08T00:56:55;18.90;74.30
18067;DHT22;9158;51.528;7.192;2023-09-08T00:57:26;18.90;75.90
18067;DHT22;9158;51.528;7.192;2023-09-08T00:57:57;18.90;99.90
18067;DHT22;9158;51.528;7.192;2023-09-08T00:58:30;18.90;99.90
18067;DHT22;9158;51.528;7.192;2023-09-08T00:59:01;18.80;93.20
18067;DHT22;9158;51.528;7.192;2023-09-08T00:59:33;18.80;99.90
18067;DHT22;9158;51.528;7.192;2023-09-08T01:00:06;18.80;99.90
18067;DHT22;9158;51.528;7.192;2023-09-08T01:00:39;18.80;98.60
18067;DHT22;9158;51.528;7.192;2023-09-08T01:01:10;18.80;99.90
18067;DHT22;9158;51.528;7.192;2023-09-08T01:01:41;18.80;99.90
18067;DHT22;9158;51.528;7.192;2023-09-08T01:02:12;18.80;99.90
18067;DHT22;9158;51.528;7.192;2023-09-08T01:02:44;18.70;99.90
18067;DHT22;9158;51.528;7.192;2023-09-08T01:03:15;18.80;99.90
18067;DHT22;9158;51.528;7.192;2023-09-08T01:03:48;18.80;99.90
18067;DHT22;9158;51.528;7.192;2023-09-08T01:04:20;18.80;99.90
18067;DHT22;9158;51.528;7.192;2023-09-08T01:04:52;18.30;99.90
18067;DHT22;9158;51.528;7.192;2023-09-08T01:05:23;18.80;99.90
18067;DHT22;9158;51.528;7.192;2023-09-08T01:05:55;18.80;99.90
18067;DHT22;9158;51.528;7.192;2023-09-08T01:06:26;18.80;99.90
18067;DHT22;9158;51.528;7.192;2023-09-08T01:06:59;18.90;99.90
18067;DHT22;9158;51.528;7.192;2023-09-08T01:07:31;18.80;99.90
18067;DHT22;9158;51.528;7.192;2023-09-08T01:08:03;18.80;99.90
18067;DHT22;9158;51.528;7.192;2023-09-08T01:08:35;18.80;99.90
18067;DHT22;9158;51.528;7.192;2023-09-08T01:09:07;18.80;99.90
18067;DHT22;9158;51.528;7.192;2023-09-08T01:09:38;18.80;99.90
18067;DHT22;9158;51.528;7.192;2023-09-08T01:10:10;18.80;99.90
18067;DHT22;9158;51.528;7.192;2023-09-08T01:10:41;18.90;99.90
18067;DHT22;9158;51.528;7.192;2023-09-08T01:11:13;18.40;99.90
18067;DHT22;9158;51.528;7.192;2023-09-08T01:11:44;18.80;99.90
18067;DHT22;9158;51.528;7.192;2023-09-08T01:12:16;18.90;99.90
18067;DHT22;9158;51.528;7.192;2023-09-08T01:12:47;18.90;99.90
18067;DHT22;9158;51.528;7.192;2023-09-08T01:13:19;18.90;99.90
18067;DHT22;9158;51.528;7.192;2023-09-08T01:13:50;18.90;99.90
18067;DHT22;9158;51.528;7.192;2023-09-08T01:14:21;18.90;99.90
18067;DHT22;9158;51.528;7.192;2023-09-08T01:14:53;18.90;99.90
18067;DHT22;9158;51.528;7.192;2023-09-08T01:15:24;18.90;98.20
18067;DHT22;9158;51.528;7.192;2023-09-08T01:15:55;18.80;99.90
18067;DHT22;9158;51.528;7.192;2023-09-08T01:16:26;18.80;99.90
18067;DHT22;9158;51.528;7.192;2023-09-08T01:16:58;18.70;99.90
18067;DHT22;9158;51.528;7.192;2023-09-08T01:17:29;18.70;99.90
18067;DHT22;9158;51.528;7.192;2023-09-08T01:18:01;18.70;99.90
18067;DHT22;9158;51.528;7.192;2023-09-08T01:18:32;18.70;99.90
18067;DHT22;9158;51.528;7.192;2023-09-08T01:19:07;18.60;99.90
18067;DHT22;9158;51.528;7.192;2023-09-08T01:19:41;18.70;99.90
18067;DHT22;9158;51.528;7.192;2023-09-08T01:20:18;18.70;99.90
18067;DHT22;9158;51.528;7.192;2023-09-08T01:21:19;18.70;99.90
18067;DHT22;9158;51.528;7.192;2023-09-08T01:22:12;18.60;99.90
18067;DHT22;9158;51.528;7.192;2023-09-08T01:23:03;18.60;99.90
18067;DHT22;9158;51.528;7.192;2023-09-08T01:23:57;18.50;99.90
18067;DHT22;9158;51.528;7.192;2023-09-08T01:25:09;18.50;99.90
18067;DHT22;9158;51.528;7.192;2023-09-08T01:25:46;18.40;99.90
18067;DHT22;9158;51.528;7.192;2023-09-08T01:26:22;18.40;99.90
18067;DHT22;9158;51.528;7.192;2023-09-08T01:26:57;18.30;99.90
18067;DHT22;9158;51.528;7.192;2023-09-08T01:27:29;18.30;99.90
18067;DHT22;9158;51.528;7.192;2023-09-08T01:28:02;18.30;99.90
18067;DHT22;9158;51.528;7.192;2023-09-08T01:28:36;18.30;99.90
18067;DHT22;9158;51.528;7.192;2023-09-08T01:29:09;18.20;99.90
18067;DHT22;9158;51.528;7.192;2023-09-08T01:29:42;18.20;99.90
18067;DHT22;9158;51.528;7.192;2023-09-08T01:30:14;18.20;99.90
18067;DHT22;9158;51.528;7.192;2023-09-08T01:30:48;18.20;99.90
18067;DHT22;9158;51.528;7.192;2023-09-08T01:31:19;18.30;99.90
18067;DHT22;9158;51.528;7.192;2023-09-08T01:31:51;18.20;99.90
18067;DHT22;9158;51.528;7.192;2023-09-08T01:32:23;18.20;99.90
18067;DHT22;9158;51.528;7.192;2023-09-08T01:32:55;18.30;99.90
18067;DHT22;9158;51.528;7.192;2023-09-08T01:33:27;18.20;99.90
18067;DHT22;9158;51.528;7.192;2023-09-08T01:34:00;18.30;99.90
18067;DHT22;9158;51.528;7.192;2023-09-08T01:34:32;18.30;99.90
18067;DHT22;9158;51.528;7.192;2023-09-08T01:35:05;18.30;99.90
18067;DHT22;9158;51.528;7.192;2023-09-08T01:35:36;18.20;99.90
18067;DHT22;9158;51.528;7.192;2023-09-08T01:36:08;18.30;99.90
18067;DHT22;9158;51.528;7.192;2023-09-08T01:36:40;18.30;99.90
18067;DHT22;9158;51.528;7.192;2023-09-08T01:37:11;18.30;99.90
18067;DHT22;9158;51.528;7.192;2023-09-08T01:37:44;18.30;99.90
18067;DHT22;9158;51.528;7.192;2023-09-08T01:38:16;18.30;99.90
18067;DHT22;9158;51.528;7.192;2023-09-08T01:38:48;18.40;99.90
18067;DHT22;9158;51.528;7.192;2023-09-08T01:39:19;18.40;99.90
18067;DHT22;9158;51.528;7.192;2023-09-08T01:39:50;18.40;99.90
18067;DHT22;9158;51.528;7.192;2023-09-08T01:40:22;18.40;99.90
18067;DHT22;9158;51.528;7.192;2023-09-08T01:40:54;18.40;99.90
18067;DHT22;9158;51.528;7.192;2023-09-08T01:41:25;18.40;99.90
18067;DHT22;9158;51.528;7.192;2023-09-08T01:41:56;18.30;99.90
18067;DHT22;9158;51.528;7.192;2023-09-08T01:42:28;18.40;99.90
18067;DHT22;9158;51.528;7.192;2023-09-08T01:43:00;18.40;99.90
18067;DHT22;9158;51.528;7.192;2023-09-08T01:43:31;18.30;99.90
18067;DHT22;9158;51.528;7.192;2023-09-08T01:44:02;18.40;99.90
18067;DHT22;9158;51.528;7.192;2023-09-08T01:44:38;18.30;99.90
18067;DHT22;9158;51.528;7.192;2023-09-08T01:45:09;18.30;99.90
18067;DHT22;9158;51.528;7.192;2023-09-08T01:45:40;18.30;99.90
18067;DHT22;9158;51.528;7.192;2023-09-08T01:46:11;18.30;99.90
18067;DHT22;9158;51.528;7.192;2023-09-08T01:46:43;18.30;99.90
18067;DHT22;9158;51.528;7.192;2023-09-08T01:47:16;18.20;99.90
18067;DHT22;9158;51.528;7.192;2023-09-08T01:47:47;18.10;99.90
18067;DHT22;9158;51.528;7.192;2023-09-08T01:48:18;18.10;1.00
18067;DHT22;9158;51.528;7.192;2023-09-08T01:48:50;18.10;99.90
18067;DHT22;9158;51.528;7.192;2023-09-08T01:49:21;18.10;99.90
18067;DHT22;9158;51.528;7.192;2023-09-08T01:49:52;18.10;99.90
18067;DHT22;9158;51.528;7.192;2023-09-08T01:50:24;18.10;99.90
18067;DHT22;9158;51.528;7.192;2023-09-08T01:50:55;18.10;99.90
18067;DHT22;9158;51.528;7.192;2023-09-08T01:51:26;18.10;99.90
18067;DHT22;9158;51.528;7.192;2023-09-08T01:51:57;18.10;1.00
18067;DHT22;9158;51.528;7.192;2023-09-08T01:52:28;18.10;99.90
18067;DHT22;9158;51.528;7.192;2023-09-08T01:53:00;18.10;99.90
18067;DHT22;9158;51.528;7.192;2023-09-08T01:53:33;18.10;99.90
18067;DHT22;9158;51.528;7.192;2023-09-08T01:54:05;18.10;1.00
18067;DHT22;9158;51.528;7.192;2023-09-08T01:54:36;18.10;99.90
18067;DHT22;9158;51.528;7.192;2023-09-08T01:55:08;18.10;1.00
18067;DHT22;9158;51.528;7.192;2023-09-08T01:55:40;18.10;1.00
18067;DHT22;9158;51.528;7.192;2023-09-08T01:56:11;18.10;1.00
18067;DHT22;9158;51.528;7.192;2023-09-08T01:56:42;18.20;1.00
18067;DHT22;9158;51.528;7.192;2023-09-08T01:57:14;18.20;99.90
18067;DHT22;9158;51.528;7.192;2023-09-08T01:57:45;18.20;1.00
18067;DHT22;9158;51.528;7.192;2023-09-08T01:58:17;18.20;99.90
18067;DHT22;9158;51.528;7.192;2023-09-08T01:58:49;18.20;99.90
18067;DHT22;9158;51.528;7.192;2023-09-08T01:59:21;18.20;99.90
18067;DHT22;9158;51.528;7.192;2023-09-08T01:59:52;18.20;1.00
18067;DHT22;9158;51.528;7.192;2023-09-08T02:00:22;18.30;1.00
18067;DHT22;9158;51.528;7.192;2023-09-08T02:00:55;18.30;99.90
18067;DHT22;9158;51.528;7.192;2023-09-08T02:01:30;18.30;99.90
18067;DHT22;9158;51.528;7.192;2023-09-08T02:02:01;18.30;99.90
18067;DHT22;9158;51.528;7.192;2023-09-08T02:02:32;18.40;99.90
18067;DHT22;9158;51.528;7.192;2023-09-08T02:03:04;18.30;99.90
18067;DHT22;9158;51.528;7.192;2023-09-08T02:03:35;18.30;99.90
18067;DHT22;9158;51.528;7.192;2023-09-08T02:04:06;18.40;99.90
18067;DHT22;9158;51.528;7.192;2023-09-08T02:04:37;18.30;99.90
18067;DHT22;9158;51.528;7.192;2023-09-08T02:05:09;18.40;99.90
18067;DHT22;9158;51.528;7.192;2023-09-08T02:05:40;18.30;99.90
18067;DHT22;9158;51.528;7.192;2023-09-08T02:06:11;18.30;99.90
18067;DHT22;9158;51.528;7.192;2023-09-08T02:06:43;18.30;99.90
18067;DHT22;9158;51.528;7.192;2023-09-08T02:07:14;18.30;99.90
18067;DHT22;9158;51.528;7.192;2023-09-08T02:07:45;18.20;99.90
18067;DHT22;9158;51.528;7.192;2023-09-08T02:08:16;18.20;99.90
18067;DHT22;9158;51.528;7.192;2023-09-08T02:08:48;18.20;99.90
18067;DHT22;9158;51.528;7.192;2023-09-08T02:09:19;18.30;99.90
18067;DHT22;9158;51.528;7.192;2023-09-08T02:09:50;18.20;1.00
18067;DHT22;9158;51.528;7.192;2023-09-08T02:10:22;18.20;99.90
18067;DHT22;9158;51.528;7.192;2023-09-08T02:10:55;18.20;1.00
18067;DHT22;9158;51.528;7.192;2023-09-08T02:11:27;18.20;99.90
18067;DHT22;9158;51.528;7.192;2023-09-08T02:11:58;18.10;99.90
18067;DHT22;9158;51.528;7.192;2023-09-08T02:12:29;18.10;1.00
18067;DHT22;9158;51.528;7.192;2023-09-08T02:13:01;18.10;99.90
18067;DHT22;9158;51.528;7.192;2023-09-08T02:13:32;18.00;99.90
18067;DHT22;9158;51.528;7.192;2023-09-08T02:14:03;18.00;99.90
18067;DHT22;9158;51.528;7.192;2023-09-08T02:14:34;18.00;1.00
18067;DHT22;9158;51.528;7.192;2023-09-08T02:15:07;18.00;1.00
18067;DHT22;9158;51.528;7.192;2023-09-08T02:15:39;18.00;1.00
18067;DHT22;9158;51.528;7.192;2023-09-08T02:16:13;17.90;1.00
18067;DHT22;9158;51.528;7.192;2023-09-08T02:16:45;17.90;1.00
18067;DHT22;9158;51.528;7.192;2023-09-08T02:17:16;17.90;1.00
18067;DHT22;9158;51.528;7.192;2023-09-08T02:17:50;17.90;1.00
18067;DHT22;9158;51.528;7.192;2023-09-08T02:18:21;17.90;1.00
18067;DHT22;9158;51.528;7.192;2023-09-08T02:18:52;17.90;1.00
18067;DHT22;9158;51.528;7.192;2023-09-08T02:19:24;17.90;1.00
18067;DHT22;9158;51.528;7.192;2023-09-08T02:19:55;17.90;1.00
18067;DHT22;9158;51.528;7.192;2023-09-08T02:20:26;18.00;1.00
18067;DHT22;9158;51.528;7.192;2023-09-08T02:20:57;17.90;1.00
18067;DHT22;9158;51.528;7.192;2023-09-08T02:21:30;17.90;3.00
18067;DHT22;9158;51.528;7.192;2023-09-08T02:22:03;18.00;1.00
18067;DHT22;9158;51.528;7.192;2023-09-08T02:22:34;18.00;1.00
18067;DHT22;9158;51.528;7.192;2023-09-08T02:23:06;18.00;1.00
18067;DHT22;9158;51.528;7.192;2023-09-08T02:23:38;18.00;1.00
18067;DHT22;9158;51.528;7.192;2023-09-08T02:24:09;18.00;1.00
18067;DHT22;9158;51.528;7.192;2023-09-08T02:24:41;18.00;1.00
18067;DHT22;9158;51.528;7.192;2023-09-08T02:25:12;18.00;1.00
18067;DHT22;9158;51.528;7.192;2023-09-08T02:25:45;18.00;1.00
18067;DHT22;9158;51.528;7.192;2023-09-08T02:26:17;18.00;1.00
18067;DHT22;9158;51.528;7.192;2023-09-08T02:26:48;18.00;1.00
18067;DHT22;9158;51.528;7.192;2023-09-08T02:27:21;18.00;1.00
18067;DHT22;9158;51.528;7.192;2023-09-08T02:27:53;18.00;1.00
18067;DHT22;9158;51.528;7.192;2023-09-08T02:28:25;18.00;1.00
18067;DHT22;9158;51.528;7.192;2023-09-08T02:28:57;17.90;1.00
18067;DHT22;9158;51.528;7.192;2023-09-08T02:29:30;18.00;1.00
18067;DHT22;9158;51.528;7.192;2023-09-08T02:30:02;18.00;1.00
18067;DHT22;9158;51.528;7.192;2023-09-08T02:30:34;18.00;1.00
18067;DHT22;9158;51.528;7.192;2023-09-08T02:31:06;18.00;1.00
18067;DHT22;9158;51.528;7.192;2023-09-08T02:31:38;18.00;1.00
18067;DHT22;9158;51.528;7.192;2023-09-08T02:32:11;18.00;1.00
18067;DHT22;9158;51.528;7.192;2023-09-08T02:32:41;18.00;1.00
18067;DHT22;9158;51.528;7.192;2023-09-08T02:33:15;17.90;1.00
18067;DHT22;9158;51.528;7.192;2023-09-08T02:33:46;17.90;1.00
18067;DHT22;9158;51.528;7.192;2023-09-08T02:34:17;17.90;1.00
18067;DHT22;9158;51.528;7.192;2023-09-08T02:34:48;17.90;1.00
18067;DHT22;9158;51.528;7.192;2023-09-08T02:35:21;17.90;1.00
18067;DHT22;9158;51.528;7.192;2023-09-08T02:35:52;17.90;1.00
18067;DHT22;9158;51.528;7.192;2023-09-08T02:36:24;17.90;1.00
18067;DHT22;9158;51.528;7.192;2023-09-08T02:36:57;17.80;1.00
18067;DHT22;9158;51.528;7.192;2023-09-08T02:37:30;17.90;1.00
18067;DHT22;9158;51.528;7.192;2023-09-08T02:38:01;17.90;1.00
18067;DHT22;9158;51.528;7.192;2023-09-08T02:38:32;17.90;1.00
18067;DHT22;9158;51.528;7.192;2023-09-08T02:39:04;17.90;1.00
18067;DHT22;9158;51.528;7.192;2023-09-08T02:39:35;17.90;1.00
18067;DHT22;9158;51.528;7.192;2023-09-08T02:40:07;17.80;1.00
18067;DHT22;9158;51.528;7.192;2023-09-08T02:40:40;17.80;1.00
18067;DHT22;9158;51.528;7.192;2023-09-08T02:41:11;17.80;1.00
18067;DHT22;9158;51.528;7.192;2023-09-08T02:41:43;17.80;1.00
18067;DHT22;9158;51.528;7.192;2023-09-08T02:42:15;17.80;1.00
18067;DHT22;9158;51.528;7.192;2023-09-08T02:42:46;17.80;1.00
18067;DHT22;9158;51.528;7.192;2023-09-08T02:43:17;17.90;1.00
18067;DHT22;9158;51.528;7.192;2023-09-08T02:43:48;17.90;1.00
18067;DHT22;9158;51.528;7.192;2023-09-08T02:44:22;17.90;1.00
18067;DHT22;9158;51.528;7.192;2023-09-08T02:44:53;17.90;1.00
18067;DHT22;9158;51.528;7.192;2023-09-08T02:45:24;17.90;1.00
18067;DHT22;9158;51.528;7.192;2023-09-08T02:45:55;17.90;1.00
18067;DHT22;9158;51.528;7.192;2023-09-08T02:46:27;17.90;1.00
18067;DHT22;9158;51.528;7.192;2023-09-08T02:46:58;17.90;1.00
18067;DHT22;9158;51.528;7.192;2023-09-08T02:47:30;17.90;1.00
18067;DHT22;9158;51.528;7.192;2023-09-08T02:48:04;17.80;1.00
18067;DHT22;9158;51.528;7.192;2023-09-08T02:48:36;17.80;1.00
18067;DHT22;9158;51.528;7.192;2023-09-08T02:49:07;17.80;1.00
18067;DHT22;9158;51.528;7.192;2023-09-08T02:49:37;17.80;1.00
18067;DHT22;9158;51.528;7.192;2023-09-08T02:50:09;17.70;1.00
18067;DHT22;9158;51.528;7.192;2023-09-08T02:50:40;17.70;1.00
18067;DHT22;9158;51.528;7.192;2023-09-08T02:51:11;17.70;1.00
18067;DHT22;9158;51.528;7.192;2023-09-08T02:51:43;17.60;1.00
18067;DHT22;9158;51.528;7.192;2023-09-08T02:52:15;17.60;1.00
18067;DHT22;9158;51.528;7.192;2023-09-08T02:52:46;17.60;1.00
18067;DHT22;9158;51.528;7.192;2023-09-08T02:53:17;17.60;1.00
18067;DHT22;9158;51.528;7.192;2023-09-08T02:53:48;17.60;1.00
18067;DHT22;9158;51.528;7.192;2023-09-08T02:54:19;17.50;1.00
18067;DHT22;9158;51.528;7.192;2023-09-08T02:54:51;17.50;1.00
18067;DHT22;9158;51.528;7.192;2023-09-08T02:55:23;17.50;1.00
18067;DHT22;9158;51.528;7.192;2023-09-08T02:55:54;17.40;1.00
18067;DHT22;9158;51.528;7.192;2023-09-08T02:56:25;17.40;1.00
18067;DHT22;9158;51.528;7.192;2023-09-08T02:56:58;17.40;1.00
18067;DHT22;9158;51.528;7.192;2023-09-08T02:57:29;17.40;1.00
18067;DHT22;9158;51.528;7.192;2023-09-08T02:58:00;17.30;1.00
18067;DHT22;9158;51.528;7.192;2023-09-08T02:58:31;17.40;1.00
18067;DHT22;9158;51.528;7.192;2023-09-08T02:59:04;17.40;1.00
18067;DHT22;9158;51.528;7.192;2023-09-08T02:59:35;17.30;1.00
18067;DHT22;9158;51.528;7.192;2023-09-08T03:00:07;17.30;1.00
18067;DHT22;9158;51.528;7.192;2023-09-08T03:00:39;17.40;1.00
18067;DHT22;9158;51.528;7.192;2023-09-08T03:01:11;17.40;1.00
18067;DHT22;9158;51.528;7.192;2023-09-08T03:01:44;17.40;1.00
18067;DHT22;9158;51.528;7.192;2023-09-08T03:02:15;17.40;1.00
18067;DHT22;9158;51.528;7.192;2023-09-08T03:02:46;17.40;1.00
18067;DHT22;9158;51.528;7.192;2023-09-08T03:03:17;17.40;1.00
18067;DHT22;9158;51.528;7.192;2023-09-08T03:03:49;17.40;1.00
18067;DHT22;9158;51.528;7.192;2023-09-08T03:04:20;17.40;1.00
18067;DHT22;9158;51.528;7.192;2023-09-08T03:04:53;17.40;1.00
18067;DHT22;9158;51.528;7.192;2023-09-08T03:05:24;17.30;1.00
18067;DHT22;9158;51.528;7.192;2023-09-08T03:05:55;17.30;1.00
18067;DHT22;9158;51.528;7.192;2023-09-08T03:06:29;17.30;1.00
18067;DHT22;9158;51.528;7.192;2023-09-08T03:07:01;17.30;1.00
18067;DHT22;9158;51.528;7.192;2023-09-08T03:07:32;17.20;1.00
18067;DHT22;9158;51.528;7.192;2023-09-08T03:08:06;17.20;1.00
18067;DHT22;9158;51.528;7.192;2023-09-08T03:08:37;17.20;1.00
18067;DHT22;9158;51.528;7.192;2023-09-08T03:09:09;17.20;1.00
18067;DHT22;9158;51.528;7.192;2023-09-08T03:09:40;17.10;1.00
18067;DHT22;9158;51.528;7.192;2023-09-08T03:10:11;17.10;1.00
18067;DHT22;9158;51.528;7.192;2023-09-08T03:10:43;17.10;1.00
18067;DHT22;9158;51.528;7.192;2023-09-08T03:11:14;17.10;6.90
18067;DHT22;9158;51.528;7.192;2023-09-08T03:11:45;17.20;91.10
18067;DHT22;9158;51.528;7.192;2023-09-08T03:12:19;17.20;90.80
18067;DHT22;9158;51.528;7.192;2023-09-08T03:12:50;17.10;1.00
18067;DHT22;9158;51.528;7.192;2023-09-08T03:13:21;17.10;1.00
18067;DHT22;9158;51.528;7.192;2023-09-08T03:13:52;17.10;1.00
18067;DHT22;9158;51.528;7.192;2023-09-08T03:14:24;17.10;1.00
18067;DHT22;9158;51.528;7.192;2023-09-08T03:14:55;17.20;1.00
18067;DHT22;9158;51.528;7.192;2023-09-08T03:15:27;17.10;1.00
18067;DHT22;9158;51.528;7.192;2023-09-08T03:16:02;17.20;1.00
18067;DHT22;9158;51.528;7.192;2023-09-08T03:16:35;17.20;1.00
18067;DHT22;9158;51.528;7.192;2023-09-08T03:17:08;17.20;1.00
18067;DHT22;9158;51.528;7.192;2023-09-08T03:17:39;17.10;1.00
18067;DHT22;9158;51.528;7.192;2023-09-08T03:18:10;17.10;1.00
18067;DHT22;9158;51.528;7.192;2023-09-08T03:18:41;17.10;1.00
18067;DHT22;9158;51.528;7.192;2023-09-08T03:19:14;17.20;1.00
18067;DHT22;9158;51.528;7.192;2023-09-08T03:19:45;17.20;29.90
18067;DHT22;9158;51.528;7.192;2023-09-08T03:20:16;17.10;1.00
18067;DHT22;9158;51.528;7.192;2023-09-08T03:20:48;17.10;1.00
18067;DHT22;9158;51.528;7.192;2023-09-08T03:21:21;17.10;1.00
18067;DHT22;9158;51.528;7.192;2023-09-08T03:21:52;17.10;1.00
18067;DHT22;9158;51.528;7.192;2023-09-08T03:22:23;17.20;1.00
18067;DHT22;9158;51.528;7.192;2023-09-08T03:22:55;17.20;1.00
18067;DHT22;9158;51.528;7.192;2023-09-08T03:23:26;17.20;1.00
18067;DHT22;9158;51.528;7.192;2023-09-08T03:23:57;17.10;1.00
18067;DHT22;9158;51.528;7.192;2023-09-08T03:24:28;17.10;1.00
18067;DHT22;9158;51.528;7.192;2023-09-08T03:25:00;17.10;1.00
18067;DHT22;9158;51.528;7.192;2023-09-08T03:25:31;17.10;7.20
18067;DHT22;9158;51.528;7.192;2023-09-08T03:26:02;17.10;49.40
18067;DHT22;9158;51.528;7.192;2023-09-08T03:26:33;17.10;99.90
18067;DHT22;9158;51.528;7.192;2023-09-08T03:27:05;17.10;99.90